createdAt,value
2022-10-04T00:02:02.673Z,5.85
2022-10-04T00:04:35.423Z,5.80
2022-10-04T00:07:01.695Z,5.63
2022-10-04T00:09:35.967Z,6.30
2022-10-04T00:12:03.022Z,6.93
2022-10-04T00:14:31.248Z,6.07
2022-10-04T00:16:59.427Z,6.32
2022-10-04T00:19:46.970Z,6.25
2022-10-04T00:22:14.660Z,6.88
2022-10-04T00:24:59.742Z,7.43
2022-10-04T00:27:27.357Z,6.97
2022-10-04T00:30:02.646Z,6.03
2022-10-04T00:32:28.960Z,6.78
2022-10-04T00:34:55.264Z,6.45
2022-10-04T00:37:22.377Z,6.80
2022-10-04T00:39:48.705Z,5.95
2022-10-04T00:42:17.762Z,6.05
2022-10-04T00:44:49.223Z,6.95
2022-10-04T00:47:24.346Z,7.05
2022-10-04T00:49:54.362Z,6.30
2022-10-04T00:52:23.836Z,6.80
2022-10-04T00:54:51.834Z,6.25
2022-10-04T00:57:21.764Z,7.22
2022-10-04T00:59:52.798Z,7.20
2022-10-04T01:02:26.501Z,7.95
2022-10-04T01:04:55.273Z,7.28
2022-10-04T01:07:28.791Z,6.95
2022-10-04T01:09:57.395Z,7.93
2022-10-04T01:12:44.188Z,8.27
2022-10-04T01:15:14.567Z,7.03
2022-10-04T01:17:40.856Z,7.30
2022-10-04T01:20:27.437Z,7.05
2022-10-04T01:22:55.124Z,7.68
2022-10-04T01:25:40.232Z,6.97
2022-10-04T01:28:06.630Z,7.65
2022-10-04T01:30:32.968Z,6.65
2022-10-04T01:32:59.282Z,8.82
2022-10-04T01:35:27.288Z,6.78
2022-10-04T01:37:54.210Z,6.55
2022-10-04T01:40:21.108Z,9.43
2022-10-04T01:42:50.382Z,7.95
2022-10-04T01:45:38.300Z,7.60
2022-10-04T01:48:06.723Z,8.07
2022-10-04T01:50:35.160Z,7.72
2022-10-04T01:53:10.693Z,7.50
2022-10-04T01:58:09.518Z,7.05
2022-10-04T02:00:38.315Z,7.63
2022-10-04T02:03:08.318Z,7.05
2022-10-04T02:05:40.365Z,8.20
2022-10-04T02:08:08.695Z,7.88
2022-10-04T02:10:38.697Z,7.68
2022-10-04T02:13:10.507Z,7.43
2022-10-04T02:15:39.750Z,7.80
2022-10-04T02:18:17.159Z,8.27
2022-10-04T02:20:43.858Z,7.70
2022-10-04T02:23:11.230Z,7.43
2022-10-04T02:25:37.860Z,7.80
2022-10-04T02:28:14.131Z,7.68
2022-10-04T02:30:41.741Z,8.02
2022-10-04T02:33:08.234Z,7.78
2022-10-04T02:35:43.466Z,7.63
2022-10-04T02:38:12.549Z,7.40
2022-10-04T02:40:53.418Z,8.35
2022-10-04T02:43:22.752Z,8.02
2022-10-04T02:45:51.222Z,7.80
2022-10-04T02:48:36.733Z,8.25
2022-10-04T02:51:11.605Z,8.05
2022-10-04T02:53:45.949Z,8.10
2022-10-04T02:56:12.979Z,8.00
2022-10-04T02:58:40.088Z,7.88
2022-10-04T03:01:06.644Z,7.78
2022-10-04T03:03:34.629Z,8.40
2022-10-04T03:06:03.623Z,7.78
2022-10-04T03:08:32.205Z,8.95
2022-10-04T03:10:59.670Z,7.97
2022-10-04T03:13:26.517Z,8.45
2022-10-04T03:15:52.862Z,8.50
2022-10-04T03:18:19.933Z,9.30
2022-10-04T03:20:47.064Z,8.85
2022-10-04T03:23:15.279Z,9.25
2022-10-04T03:25:48.428Z,8.70
2022-10-04T03:28:14.866Z,8.70
2022-10-04T03:30:43.964Z,9.63
2022-10-04T03:33:15.293Z,10.15
2022-10-04T03:35:41.675Z,9.63
2022-10-04T03:38:09.094Z,10.90
2022-10-04T03:40:37.838Z,9.95
2022-10-04T03:43:05.447Z,11.02
2022-10-04T03:45:32.781Z,10.15
2022-10-04T03:48:04.946Z,11.02
2022-10-04T03:50:37.861Z,10.10
2022-10-04T03:53:27.377Z,9.95
2022-10-04T03:55:53.721Z,11.23
2022-10-04T03:58:20.486Z,10.45
2022-10-04T04:01:07.173Z,10.05
2022-10-04T04:03:41.718Z,10.32
2022-10-04T04:06:14.336Z,10.48
2022-10-04T04:08:42.333Z,10.38
2022-10-04T04:11:18.852Z,11.25
2022-10-04T04:13:51.925Z,10.75
2022-10-04T04:16:20.185Z,10.35
2022-10-04T04:18:48.320Z,10.65
2022-10-04T04:21:18.670Z,11.45
2022-10-04T04:23:48.643Z,10.20
2022-10-04T04:26:17.810Z,10.80
2022-10-04T04:28:50.293Z,11.00
2022-10-04T04:31:16.594Z,10.43
2022-10-04T04:33:44.293Z,11.77
2022-10-04T04:36:12.246Z,10.90
2022-10-04T04:39:01.491Z,11.38
2022-10-04T04:41:29.151Z,10.32
2022-10-04T04:43:55.664Z,11.43
2022-10-04T04:46:27.591Z,10.73
2022-10-04T04:48:58.302Z,10.38
2022-10-04T04:51:24.888Z,11.90
2022-10-04T04:53:52.415Z,10.88
2022-10-04T04:56:21.405Z,11.02
2022-10-04T04:58:48.855Z,10.45
2022-10-04T05:01:23.584Z,10.75
2022-10-04T05:03:59.856Z,10.50
2022-10-04T05:06:27.502Z,10.75
2022-10-04T05:08:53.768Z,10.80
2022-10-04T05:11:22.468Z,10.82
2022-10-04T05:14:01.072Z,11.30
2022-10-04T05:16:46.027Z,10.73
2022-10-04T05:19:24.896Z,10.53
2022-10-04T05:21:55.302Z,10.65
2022-10-04T05:24:21.637Z,11.05
2022-10-04T05:26:59.372Z,11.98
2022-10-04T05:29:32.322Z,10.57
2022-10-04T05:32:22.004Z,11.13
2022-10-04T05:34:50.152Z,11.27
2022-10-04T05:37:53.283Z,11.05
2022-10-04T05:40:29.799Z,10.73
2022-10-04T05:42:58.374Z,11.40
2022-10-04T05:45:26.799Z,12.77
2022-10-04T05:47:57.464Z,11.93
2022-10-04T05:50:29.417Z,10.68
2022-10-04T05:53:07.842Z,11.27
2022-10-04T05:55:45.914Z,11.00
2022-10-04T05:58:30.900Z,11.77
2022-10-04T06:01:03.226Z,10.90
2022-10-04T06:03:32.274Z,11.00
2022-10-04T06:06:05.676Z,11.85
2022-10-04T06:08:56.283Z,11.18
2022-10-04T06:11:22.529Z,10.70
2022-10-04T06:14:09.184Z,11.63
2022-10-04T06:16:41.370Z,12.32
2022-10-04T06:19:26.802Z,10.80
2022-10-04T06:22:16.844Z,11.30
2022-10-04T06:24:56.745Z,11.95
2022-10-04T06:27:29.165Z,11.10
2022-10-04T06:29:59.354Z,11.70
2022-10-04T06:32:35.850Z,11.23
2022-10-04T06:35:09.461Z,10.95
2022-10-04T06:37:51.284Z,12.43
2022-10-04T06:40:38.081Z,10.68
2022-10-04T06:43:12.656Z,11.57
2022-10-04T06:45:47.928Z,11.23
2022-10-04T06:48:32.837Z,11.18
2022-10-04T06:50:59.090Z,11.25
2022-10-04T06:53:44.133Z,11.43
2022-10-04T06:56:23.217Z,11.77
2022-10-04T06:58:53.240Z,11.35
2022-10-04T07:01:33.018Z,11.32
2022-10-04T07:04:02.547Z,10.57
2022-10-04T07:06:51.424Z,10.82
2022-10-04T07:09:23.568Z,11.02
2022-10-04T07:11:53.524Z,10.40
2022-10-04T07:14:29.044Z,10.25
2022-10-04T07:19:28.621Z,10.68
2022-10-04T07:22:06.925Z,10.93
2022-10-04T07:24:48.767Z,10.18
2022-10-04T07:27:21.767Z,10.07
2022-10-04T07:29:53.139Z,9.80
2022-10-04T07:32:27.533Z,9.90
2022-10-04T07:35:09.148Z,9.52
2022-10-04T07:37:55.791Z,9.05
2022-10-04T07:40:24.775Z,8.70
2022-10-04T07:42:59.798Z,8.52
2022-10-04T07:45:32.511Z,8.65
2022-10-04T07:48:04.131Z,8.30
2022-10-04T07:50:34.592Z,7.88
2022-10-04T07:53:08.546Z,8.30
2022-10-04T07:55:42.913Z,7.80
2022-10-04T07:58:18.396Z,7.85
2022-10-04T08:05:38.071Z,6.70
2022-10-04T08:08:04.400Z,6.25
2022-10-04T08:10:36.543Z,6.03
2022-10-04T08:13:02.828Z,7.90
2022-10-04T08:15:34.738Z,6.82
2022-10-04T08:18:06.938Z,7.35
2022-10-04T08:20:54.352Z,6.03
2022-10-04T08:23:29.201Z,7.10
2022-10-04T08:25:58.617Z,7.10
2022-10-04T08:28:43.358Z,6.82
2022-10-04T08:31:32.880Z,7.05
2022-10-04T08:34:04.149Z,6.97
2022-10-04T08:36:33.083Z,7.13
2022-10-04T08:39:00.053Z,6.63
2022-10-04T08:41:45.686Z,6.82
2022-10-04T08:44:23.778Z,6.57
2022-10-04T08:46:59.361Z,7.05
2022-10-04T08:49:44.797Z,7.43
2022-10-04T08:52:11.061Z,7.15
2022-10-04T08:54:57.267Z,7.35
2022-10-04T08:57:29.753Z,6.38
2022-10-04T09:00:15.338Z,6.97
2022-10-04T09:02:47.945Z,6.57
2022-10-04T09:05:20.364Z,5.95
2022-10-04T09:08:04.957Z,6.45
2022-10-04T09:10:47.844Z,6.78
2022-10-04T09:13:22.328Z,6.80
2022-10-04T09:15:52.646Z,6.30
2022-10-04T09:18:26.390Z,7.03
2022-10-04T09:21:12.376Z,6.30
2022-10-04T09:26:13.888Z,6.55
2022-10-04T09:28:43.321Z,6.30
2022-10-04T09:31:12.523Z,6.50
2022-10-04T09:33:48.108Z,6.78
2022-10-04T09:39:11.524Z,6.18
2022-10-04T09:41:51.294Z,6.88
2022-10-04T09:44:46.034Z,6.13
2022-10-04T09:47:24.398Z,6.45
2022-10-04T09:50:26.597Z,5.53
2022-10-04T09:52:53.943Z,6.53
2022-10-04T09:55:25.941Z,6.55
2022-10-04T09:57:53.468Z,6.28
2022-10-04T10:00:23.377Z,7.85
2022-10-04T10:03:11.073Z,5.72
2022-10-04T10:06:00.017Z,6.88
2022-10-04T10:08:32.147Z,6.20
2022-10-04T10:11:20.410Z,6.25
2022-10-04T10:14:05.559Z,6.18
2022-10-04T10:16:51.255Z,6.97
2022-10-04T10:19:27.539Z,6.88
2022-10-04T10:21:59.127Z,5.63
2022-10-04T10:24:43.884Z,6.28
2022-10-04T10:27:28.747Z,6.32
2022-10-04T10:29:59.383Z,5.90
2022-10-04T10:32:54.246Z,5.43
2022-10-04T10:35:34.131Z,6.32
2022-10-04T10:38:04.440Z,6.07
2022-10-04T10:40:37.241Z,6.25
2022-10-04T10:43:06.517Z,5.97
2022-10-04T10:45:44.684Z,6.18
2022-10-04T10:48:17.783Z,5.25
2022-10-04T10:51:00.255Z,6.05
2022-10-04T10:53:46.069Z,5.22
2022-10-04T10:56:30.768Z,5.15
2022-10-04T10:59:12.373Z,6.20
2022-10-04T11:02:10.261Z,6.07
2022-10-04T11:04:36.620Z,6.03
2022-10-04T11:07:16.368Z,5.38
2022-10-04T11:09:42.625Z,5.18
2022-10-04T11:12:34.452Z,5.00
2022-10-04T11:15:21.539Z,4.78
2022-10-04T11:17:57.909Z,4.55
2022-10-04T11:20:30.621Z,5.18
2022-10-04T11:23:12.901Z,4.45
2022-10-04T11:25:58.197Z,4.93
2022-10-04T11:28:24.522Z,4.88
2022-10-04T11:31:09.914Z,4.80
2022-10-04T11:33:36.175Z,4.40
2022-10-04T11:36:09.159Z,4.75
2022-10-04T11:38:42.184Z,4.00
2022-10-04T11:41:14.189Z,4.78
2022-10-04T11:43:46.646Z,3.83
2022-10-04T11:46:19.207Z,4.93
2022-10-04T11:49:03.549Z,4.47
2022-10-04T11:51:44.818Z,3.78
2022-10-04T11:54:16.880Z,4.03
2022-10-04T11:57:06.245Z,3.53
2022-10-04T11:59:32.545Z,4.43
2022-10-04T12:02:07.731Z,4.05
2022-10-04T12:04:40.127Z,3.85
2022-10-04T12:07:08.261Z,3.97
2022-10-04T12:09:40.806Z,3.40
2022-10-04T12:12:28.989Z,4.20
2022-10-04T12:14:58.163Z,4.07
2022-10-04T12:17:44.376Z,4.78
2022-10-04T12:20:19.720Z,4.45
2022-10-04T12:23:06.256Z,3.55
2022-10-04T12:25:35.647Z,4.00
2022-10-04T12:28:26.819Z,3.90
2022-10-04T12:31:32.275Z,3.90
2022-10-04T12:34:04.852Z,4.13
2022-10-04T12:36:43.343Z,4.25
2022-10-04T12:39:18.802Z,3.75
2022-10-04T12:42:00.478Z,3.30
2022-10-04T12:44:52.946Z,3.67
2022-10-04T12:47:39.158Z,3.88
2022-10-04T12:50:05.674Z,3.20
2022-10-04T12:52:42.008Z,3.75
2022-10-04T12:55:27.149Z,3.53
2022-10-04T12:58:12.218Z,3.40
2022-10-04T13:00:43.126Z,3.00
2022-10-04T13:03:29.521Z,2.83
2022-10-04T13:06:04.946Z,2.75
2022-10-04T13:11:16.438Z,3.38
2022-10-04T13:13:58.830Z,3.08
2022-10-04T13:19:29.698Z,3.78
2022-10-04T13:22:01.659Z,3.70
2022-10-04T13:24:53.755Z,3.05
2022-10-04T13:27:22.283Z,3.80
2022-10-04T13:30:08.858Z,3.83
2022-10-04T13:32:42.244Z,3.88
2022-10-04T13:35:20.912Z,3.70
2022-10-04T13:38:00.297Z,4.32
2022-10-04T13:40:26.586Z,4.03
2022-10-04T13:42:55.944Z,3.80
2022-10-04T13:45:41.041Z,3.80
2022-10-04T13:48:13.805Z,3.80
2022-10-04T13:50:45.262Z,3.63
2022-10-04T13:53:55.489Z,3.42
2022-10-04T13:56:40.449Z,4.45
2022-10-04T13:59:19.080Z,5.55
2022-10-04T14:01:54.453Z,4.45
2022-10-04T14:06:53.028Z,3.75
2022-10-04T14:09:22.964Z,3.35
2022-10-04T14:11:59.495Z,3.97
2022-10-04T14:14:35.283Z,3.47
2022-10-04T14:17:07.591Z,4.38
2022-10-04T14:19:36.970Z,3.78
2022-10-04T14:22:22.986Z,4.43
2022-10-04T14:25:07.794Z,3.65
2022-10-04T14:27:34.045Z,3.47
2022-10-04T14:30:08.282Z,3.58
2022-10-04T14:32:34.556Z,3.38
2022-10-04T14:35:09.965Z,4.03
2022-10-04T14:40:22.710Z,4.50
2022-10-04T14:43:03.444Z,3.30
2022-10-04T14:45:35.369Z,3.53
2022-10-04T14:48:21.139Z,5.13
2022-10-04T14:50:59.882Z,3.80
2022-10-04T14:53:31.487Z,3.50
2022-10-04T14:55:58.177Z,3.80
2022-10-04T14:58:40.775Z,3.75
2022-10-04T15:01:08.196Z,3.42
2022-10-04T15:03:34.780Z,4.20
2022-10-04T15:06:10.760Z,4.00
2022-10-04T15:08:58.463Z,3.35
2022-10-04T15:11:41.107Z,3.70
2022-10-04T15:14:29.822Z,3.10
2022-10-04T15:16:58.238Z,3.92
2022-10-04T15:19:31.078Z,3.97
2022-10-04T15:22:03.729Z,4.13
2022-10-04T15:24:30.035Z,3.30
2022-10-04T15:27:15.174Z,4.15
2022-10-04T15:30:00.795Z,3.80
2022-10-04T15:32:39.146Z,3.70
2022-10-04T15:35:11.631Z,4.40
2022-10-04T15:37:40.920Z,4.00
2022-10-04T15:40:32.733Z,3.55
2022-10-04T15:43:17.959Z,4.32
2022-10-04T15:45:52.867Z,3.25
2022-10-04T15:48:22.301Z,3.92
2022-10-04T15:50:48.655Z,3.40
2022-10-04T15:53:19.768Z,3.92
2022-10-04T15:55:49.771Z,4.03
2022-10-04T15:58:35.011Z,4.05
2022-10-04T16:01:13.140Z,3.78
2022-10-04T16:03:46.203Z,3.33
2022-10-04T16:06:20.745Z,4.15
2022-10-04T16:08:51.618Z,4.13
2022-10-04T16:11:23.926Z,3.83
2022-10-04T16:14:15.760Z,3.22
2022-10-04T16:17:05.289Z,3.75
2022-10-04T16:19:37.489Z,3.78
2022-10-04T16:22:14.989Z,3.85
2022-10-04T16:24:41.373Z,4.28
2022-10-04T16:27:27.007Z,3.78
2022-10-04T16:30:24.947Z,3.30
2022-10-04T16:33:01.847Z,4.25
2022-10-04T16:35:37.854Z,3.67
2022-10-04T16:38:13.199Z,3.65
2022-10-04T16:43:11.024Z,4.22
2022-10-04T16:45:52.197Z,3.67
2022-10-04T16:48:18.434Z,3.53
2022-10-04T16:51:04.201Z,3.50
2022-10-04T16:56:10.377Z,3.60
2022-10-04T16:58:42.742Z,3.63
2022-10-04T17:01:26.874Z,4.07
2022-10-04T17:04:05.501Z,3.67
2022-10-04T17:06:47.461Z,4.30
2022-10-04T17:09:22.873Z,3.58
2022-10-04T17:11:52.145Z,3.70
2022-10-04T17:14:31.476Z,3.65
2022-10-04T17:17:01.132Z,3.97
2022-10-04T17:19:45.536Z,3.70
2022-10-04T17:22:22.348Z,5.82
2022-10-04T17:24:56.372Z,4.78
2022-10-04T17:27:27.844Z,3.70
2022-10-04T17:29:54.177Z,3.78
2022-10-04T17:32:27.917Z,4.53
2022-10-04T17:35:13.296Z,3.80
2022-10-04T17:37:48.334Z,4.07
2022-10-04T17:40:27.906Z,4.03
2022-10-04T17:43:14.435Z,4.25
2022-10-04T17:45:50.022Z,4.18
2022-10-04T17:48:36.691Z,4.50
2022-10-04T17:51:23.525Z,3.92
2022-10-04T17:54:10.814Z,3.92
2022-10-04T17:56:42.689Z,3.70
2022-10-04T17:59:17.564Z,3.72
2022-10-04T18:01:49.635Z,4.15
2022-10-04T18:04:21.156Z,4.00
2022-10-04T18:06:56.775Z,4.10
2022-10-04T18:09:25.723Z,4.00
2022-10-04T18:12:00.688Z,3.60
2022-10-04T18:14:29.975Z,5.20
2022-10-04T18:17:06.191Z,4.30
2022-10-04T18:19:36.316Z,3.60
2022-10-04T18:22:14.882Z,4.22
2022-10-04T18:24:45.321Z,3.55
2022-10-04T18:27:29.568Z,4.15
2022-10-04T18:30:01.893Z,4.00
2022-10-04T18:32:28.169Z,4.30
2022-10-04T18:34:55.165Z,4.38
2022-10-04T18:37:35.534Z,4.15
2022-10-04T18:40:10.976Z,4.20
2022-10-04T18:45:20.111Z,4.00
2022-10-04T18:47:47.245Z,4.25
2022-10-04T18:50:19.916Z,3.70
2022-10-04T18:52:58.187Z,4.22
2022-10-04T18:55:43.397Z,4.47
2022-10-04T18:58:40.779Z,4.13
2022-10-04T19:01:33.657Z,4.25
2022-10-04T19:04:02.477Z,4.57
2022-10-04T19:06:30.427Z,3.95
2022-10-04T19:09:15.634Z,4.20
2022-10-04T19:11:41.883Z,4.30
2022-10-04T19:14:18.663Z,4.22
2022-10-04T19:17:04.068Z,4.03
2022-10-04T19:19:41.916Z,3.80
2022-10-04T19:22:11.234Z,4.47
2022-10-04T19:24:52.581Z,4.00
2022-10-04T19:27:26.928Z,3.88
2022-10-04T19:30:01.650Z,3.97
2022-10-04T19:32:28.117Z,4.03
2022-10-04T19:35:09.393Z,4.05
2022-10-04T19:37:55.885Z,3.90
2022-10-04T19:40:26.217Z,3.90
2022-10-04T19:42:59.052Z,3.90
2022-10-04T19:45:45.586Z,3.85
2022-10-04T19:48:23.371Z,4.30
2022-10-04T19:50:53.577Z,3.92
2022-10-04T19:53:28.676Z,4.20
2022-10-04T19:55:59.133Z,4.57
2022-10-04T19:58:29.784Z,4.22
2022-10-04T20:00:56.137Z,4.60
2022-10-04T20:03:22.520Z,3.97
2022-10-04T20:05:50.011Z,3.58
2022-10-04T20:08:36.213Z,4.13
2022-10-04T20:11:13.508Z,3.85
2022-10-04T20:13:40.239Z,3.42
2022-10-04T20:16:06.563Z,3.90
2022-10-04T20:18:32.892Z,3.95
2022-10-04T20:20:59.922Z,4.03
2022-10-04T20:23:38.684Z,4.18
2022-10-04T20:26:06.146Z,4.60
2022-10-04T20:28:32.472Z,4.47
2022-10-04T20:31:00.050Z,3.55
2022-10-04T20:33:32.799Z,3.95
2022-10-04T20:36:02.897Z,4.25
2022-10-04T20:38:47.521Z,4.28
2022-10-04T20:41:29.329Z,4.40
2022-10-04T20:43:56.078Z,4.00
2022-10-04T20:46:26.338Z,4.38
2022-10-04T20:48:54.089Z,4.47
2022-10-04T20:51:22.689Z,4.05
2022-10-04T20:53:51.024Z,4.18
2022-10-04T20:56:23.961Z,3.80
2022-10-04T20:58:51.557Z,4.10
2022-10-04T21:01:42.290Z,4.57
2022-10-04T21:04:30.813Z,4.70
2022-10-04T21:07:02.069Z,4.20
2022-10-04T21:09:29.471Z,4.28
2022-10-04T21:11:56.401Z,4.40
2022-10-04T21:14:27.386Z,4.15
2022-10-04T21:17:02.963Z,4.25
2022-10-04T21:19:32.659Z,4.38
2022-10-04T21:22:06.154Z,4.32
2022-10-04T21:24:51.003Z,4.53
2022-10-04T21:27:28.055Z,4.20
2022-10-04T21:29:54.732Z,4.18
2022-10-04T21:32:25.163Z,4.43
2022-10-04T21:34:54.115Z,4.28
2022-10-04T21:37:21.078Z,4.75
2022-10-04T21:39:47.412Z,4.85
2022-10-04T21:42:13.722Z,4.63
2022-10-04T21:44:40.007Z,4.50
2022-10-04T21:47:06.255Z,4.57
2022-10-04T21:49:32.526Z,4.57
2022-10-04T21:51:58.855Z,4.78
2022-10-04T21:54:25.088Z,4.95
2022-10-04T21:56:51.346Z,4.75
2022-10-04T21:59:17.604Z,4.80
2022-10-04T22:01:43.918Z,4.55
2022-10-04T22:04:10.249Z,4.47
2022-10-04T22:06:36.500Z,5.28
2022-10-04T22:09:03.006Z,4.82
2022-10-04T22:11:29.288Z,5.47
2022-10-04T22:13:55.535Z,5.20
2022-10-04T22:16:21.849Z,4.78
2022-10-04T22:18:48.170Z,5.18
2022-10-04T22:21:14.411Z,5.22
2022-10-04T22:23:41.558Z,4.95
2022-10-04T22:26:15.371Z,4.78
2022-10-04T22:28:43.540Z,4.75
2022-10-04T22:31:21.064Z,5.60
2022-10-04T22:33:48.409Z,5.10
2022-10-04T22:36:16.108Z,5.65
2022-10-04T22:38:44.376Z,6.10
2022-10-04T22:41:14.347Z,5.18
2022-10-04T22:43:40.618Z,5.80
2022-10-04T22:46:12.132Z,6.32
2022-10-04T22:48:38.468Z,5.30
2022-10-04T22:51:04.729Z,6.10
2022-10-04T22:53:31.000Z,5.03
2022-10-04T22:55:58.133Z,5.38
2022-10-04T22:58:24.392Z,5.55
2022-10-04T23:00:51.032Z,5.95
2022-10-04T23:03:32.957Z,5.63
2022-10-04T23:06:00.228Z,5.13
2022-10-04T23:08:27.114Z,6.95
2022-10-04T23:10:54.862Z,5.45
2022-10-04T23:13:24.713Z,5.80
2022-10-04T23:15:51.621Z,5.47
2022-10-04T23:18:18.393Z,5.97
2022-10-04T23:20:48.304Z,5.45
2022-10-04T23:23:21.436Z,6.28
2022-10-04T23:25:48.518Z,6.75
2022-10-04T23:28:16.350Z,5.80
2022-10-04T23:30:43.227Z,6.10
2022-10-04T23:33:13.777Z,5.43
2022-10-04T23:35:40.050Z,6.68
2022-10-04T23:38:09.968Z,5.70
2022-10-04T23:40:36.275Z,6.82
2022-10-04T23:43:03.886Z,6.10
2022-10-04T23:45:30.557Z,6.22
2022-10-04T23:47:58.155Z,6.22
2022-10-04T23:50:28.481Z,5.75
2022-10-04T23:52:58.175Z,5.93
2022-10-04T23:55:25.895Z,5.95
2022-10-04T23:57:52.264Z,5.25
